Flight Track Log - Related Links

Times and Time Zones

All times are in EDT time to prevent confusion due to time zone crossing. See the UAL235 flight status page for this flight to view local times or setup timezone preferences in your user account.

Time Position Orientation Groundspeed Altitude Reporting Facility
EDT Latitude Longitude Course Direction KTS MPH feet Rate Location/Type
Mon 05:37:56 PM 39.8333 -104.7333 241° Southwest 160 184 6,300  Level Denver TRACON
Mon 05:38:56 PM 39.8333 -104.8000 270° West 217 250 7,500 1,750 Climbing Denver TRACON
Mon 05:39:56 PM 39.8000 -104.8833 243° Southwest 265 305 9,800 2,289 Climbing Denver TRACON
Mon 05:40:00 PM 39.7274 -105.0679 247° West  Level FlightAware Approximate
Mon 05:40:12 PM 39.7978 -104.9103 264° West 258 297 10,400  Level Denver Center
Mon 05:41:00 PM 39.6833 -105.2002 249° West  Level FlightAware Approximate
Mon 05:41:14 PM 39.7700 -105.0161 251° West 284 327 13,800  Level Denver Center
Mon 05:42:00 PM 39.6430 -105.3345 249° West  Level FlightAware Approximate
Mon 05:42:15 PM 39.7356 -105.1114 245° Southwest 295 339 16,500  Level Denver Center
Mon 05:43:00 PM 39.5923 -105.4624 241° Southwest  Level FlightAware Approximate
Mon 05:43:17 PM 39.6997 -105.2114 245° Southwest 303 349 19,000  Level Denver Center
Mon 05:44:31 PM 39.6564 -105.3344 245° Southwest 350 403 20,800 1,971 Climbing Denver Center
Mon 05:45:34 PM 39.6031 -105.4819 245° Southwest 371 427 23,500 2,081 Climbing Denver Center
Mon 05:46:35 PM 39.5592 -105.5986 244° Southwest 376 433 25,100 1,707 Climbing Denver Center
Mon 05:47:37 PM 39.5197 -105.7306 249° West 390 449 27,000 1,984 Climbing Denver Center
Mon 05:48:39 PM 39.4786 -105.8889 251° West 393 452 29,200 1,597 Climbing Denver Center
Mon 05:49:41 PM 39.4403 -106.0264 250° West 402 463 30,300 1,258 Climbing Denver Center
Mon 05:50:43 PM 39.3997 -106.1700 250° West 418 481 31,800 1,235 Climbing Denver Center
Mon 05:51:57 PM 39.3586 -106.3142 250° West 420 483 33,100 1,103 Climbing Denver Center
Mon 05:52:59 PM 39.3069 -106.5006 250° West 431 496 34,300 1,258 Climbing Denver Center
Mon 05:54:01 PM 39.2653 -106.6419 249° West 438 504 35,700 1,452 Climbing Denver Center
Mon 05:55:03 PM 39.1972 -106.7919 240° Southwest 434 499 37,300 1,113 Climbing Denver Center
Mon 05:56:05 PM 39.1239 -106.9092 231° Southwest 438 504 38,000 211 Climbing Denver Center
Mon 05:58:22 PM 38.9519 -107.1806 231° Southwest 437 503 38,000  Level Denver Center
Mon 05:59:23 PM 38.8647 -107.3181 231° Southwest 442 509 38,000  Level Denver Center
Mon 06:00:37 PM 38.7897 -107.4347 231° Southwest 441 507 38,000  Level Denver Center
Mon 06:01:40 PM 38.6883 -107.5922 231° Southwest 447 514 38,000  Level Denver Center
Mon 06:02:42 PM 38.6128 -107.7103 231° Southwest 447 514 38,000 -49 Level Denver Center
Mon 06:03:43 PM 38.5264 -107.8447 231° Southwest 439 505 37,900  Descending Denver Center
Mon 06:04:45 PM 38.4506 -107.9606 230° Southwest 442 509 38,000 48 Climbing Denver Center
Mon 06:05:47 PM 38.3619 -108.0958 230° Southwest 444 511 38,000  Level Denver Center
Mon 06:06:49 PM 38.2864 -108.2139 231° Southwest 447 514 38,000  Level Denver Center
Mon 06:07:51 PM 38.2097 -108.3297 230° Southwest 447 514 38,000  Level Denver Center
Mon 06:08:53 PM 38.1203 -108.4658 230° Southwest 448 516 38,000  Level Denver Center
Mon 06:09:55 PM 38.0292 -108.5697 222° Southwest 453 521 38,000  Level Denver Center
Mon 06:10:57 PM 37.8900 -108.6100 193° South 465 535 38,000 -48 Level Denver Center
Mon 06:11:59 PM 37.7692 -108.6378 190° South 461 531 37,900 -49 Descending Denver Center
Mon 06:13:00 PM 37.6692 -108.6644 192° South 459 528 37,900 49 Level Denver Center
Mon 06:14:02 PM 37.5083 -108.6967 189° South 458 527 38,000 48 Climbing Denver Center
Mon 06:15:04 PM 37.3886 -108.7256 191° South 458 527 38,000  Level Denver Center
Mon 06:16:06 PM 37.2897 -108.8442 224° Southwest 451 519 38,000 -48 Level Denver Center
Mon 06:17:08 PM 37.2447 -108.9794 247° West 441 507 37,900 -49 Descending Denver Center
Mon 06:18:09 PM 37.1936 -109.1375 248° West 442 509 37,900  Level Denver Center
Mon 06:19:11 PM 37.1486 -109.2725 247° West 441 507 37,900 48 Level Denver Center
Mon 06:20:13 PM 37.1111 -109.3844 247° West 439 505 38,000 48 Climbing Denver Center
Mon 06:21:15 PM 37.0508 -109.5681 248° West 445 512 38,000 -48 Level Denver Center
Mon 06:22:17 PM 36.9969 -109.7236 247° West 443 510 37,900 -48 Descending Denver Center
Mon 06:23:19 PM 36.9525 -109.8578 248° West 440 506 37,900  Level Denver Center
Mon 06:24:21 PM 36.9003 -110.0119 247° West 438 504 37,900 48 Level Denver Center
Mon 06:25:23 PM 36.8533 -110.1478 247° West 443 510 38,000 44 Climbing Denver Center
Mon 06:26:36 PM 36.8050 -110.2883 247° West 450 518 38,000  Level Denver Center
Mon 06:27:39 PM 36.7450 -110.4611 247° West 452 520 38,000  Level Denver Center
Mon 06:28:40 PM 36.6864 -110.6319 247° West 448 516 38,000  Level Denver Center
Mon 06:29:42 PM 36.6369 -110.7728 246° West 446 513 38,000  Level Denver Center
Mon 06:30:44 PM 36.5881 -110.9142 247° West 445 512 38,000 -48 Level Denver Center
Mon 06:31:46 PM 36.5392 -111.0539 247° West 443 510 37,900  Descending Denver Center
Mon 06:32:48 PM 36.4883 -111.1933 246° West 442 509 38,000 49 Climbing Denver Center
Mon 06:33:49 PM 36.4394 -111.3339 247° West 442 509 38,000  Level Denver Center
Mon 06:34:51 PM 36.3908 -111.4719 246° West 439 505 38,000  Level Denver Center
Mon 06:35:53 PM 36.3397 -111.6128 246° West 445 512 38,000  Level Denver Center
Mon 06:36:55 PM 36.2797 -111.7794 246° West 442 509 38,000  Level Denver Center
Mon 06:37:47 PM 36.2406 -111.8886 246° West 437 503 38,000  Level Los Angeles Center
Mon 06:38:49 PM 36.1908 -112.0264 246° West 441 507 38,000  Level Los Angeles Center
Mon 06:39:51 PM 36.1372 -112.1686 245° Southwest 452 520 38,000  Level Los Angeles Center
Mon 06:40:53 PM 36.0861 -112.3089 246° West 443 510 38,000 -48 Level Los Angeles Center
Mon 06:41:55 PM 36.0247 -112.4761 246° West 443 510 37,900  Descending Los Angeles Center
Mon 06:42:57 PM 35.9733 -112.6142 245° Southwest 441 507 38,000 48 Climbing Los Angeles Center
Mon 06:43:59 PM 35.9358 -112.7175 246° West 442 509 38,000  Level Los Angeles Center
Mon 06:45:01 PM 35.8744 -112.8828 245° Southwest 445 512 38,000  Level Los Angeles Center
Mon 06:46:03 PM 35.8131 -113.0469 245° Southwest 445 512 38,000  Level Los Angeles Center
Mon 06:47:06 PM 35.7622 -113.1847 246° West 448 516 38,000 -48 Level Los Angeles Center
Mon 06:48:08 PM 35.7106 -113.3183 245° Southwest 443 510 37,900 -48 Descending Los Angeles Center
Mon 06:49:10 PM 35.6603 -113.4519 245° Southwest 437 503 37,900  Level Los Angeles Center
Mon 06:50:12 PM 35.6083 -113.5847 244° Southwest 438 504 37,900 48 Level Los Angeles Center
Mon 06:51:14 PM 35.5433 -113.7453 244° Southwest 441 507 38,000 48 Climbing Los Angeles Center
Mon 06:52:16 PM 35.4886 -113.8803 244° Southwest 443 510 38,000  Level Los Angeles Center
Mon 06:53:18 PM 35.4289 -114.0258 243° Southwest 444 511 38,000  Level Los Angeles Center
Mon 06:54:20 PM 35.3725 -114.1617 243° Southwest 445 512 38,000  Level Los Angeles Center
Mon 06:55:22 PM 35.3189 -114.2972 244° Southwest 442 509 38,000  Level Los Angeles Center
Mon 06:56:24 PM 35.2628 -114.4319 243° Southwest 441 507 38,000  Level Los Angeles Center
Mon 06:57:26 PM 35.2067 -114.5672 243° Southwest 445 512 38,000  Level Los Angeles Center
Mon 06:58:28 PM 35.1383 -114.7289 243° Southwest 445 512 38,000  Level Los Angeles Center
Mon 06:59:30 PM 35.0819 -114.8631 243° Southwest 442 509 38,000  Level Los Angeles Center
Mon 07:00:32 PM 35.0261 -114.9972 243° Southwest 443 510 38,000  Level Los Angeles Center
Mon 07:01:34 PM 34.9697 -115.1306 243° Southwest 442 509 38,000  Level Los Angeles Center
Mon 07:02:36 PM 34.9136 -115.2633 243° Southwest 439 505 38,000  Level Los Angeles Center
Mon 07:03:38 PM 34.8575 -115.3956 243° Southwest 439 505 38,000  Level Los Angeles Center
Mon 07:04:40 PM 34.8014 -115.5281 243° Southwest 440 506 38,000  Level Los Angeles Center
Mon 07:05:42 PM 34.7367 -115.6786 242° Southwest 438 504 38,000 -339 Level Los Angeles Center
Mon 07:06:44 PM 34.6806 -115.8103 243° Southwest 439 505 37,300 -1,016 Descending Los Angeles Center
Mon 07:07:46 PM 34.6231 -115.9425 242° Southwest 440 506 35,900 -1,597 Descending Los Angeles Center
Mon 07:08:48 PM 34.5647 -116.0753 242° Southwest 444 511 34,000 -1,839 Descending Los Angeles Center
Mon 07:09:50 PM 34.5081 -116.2050 242° Southwest 437 503 32,100 -1,742 Descending Los Angeles Center
Mon 07:10:52 PM 34.4536 -116.3281 242° Southwest 417 480 30,400 -2,081 Descending Los Angeles Center
Mon 07:11:54 PM 34.3906 -116.4714 242° Southwest 404 465 27,800 -2,323 Descending Los Angeles Center
Mon 07:12:56 PM 34.3364 -116.5939 242° Southwest 410 472 25,600 -1,805 Descending Los Angeles Center
Mon 07:13:57 PM 34.2928 -116.6933 242° Southwest 415 478 24,100 -1,742 Descending Los Angeles Center
Mon 07:15:00 PM 34.2286 -116.8356 241° Southwest 402 463 22,000 -1,728 Descending Los Angeles Center
Mon 07:16:02 PM 34.1792 -116.9500 242° Southwest 390 449 20,500 -1,210 Descending Los Angeles Center
Mon 07:17:04 PM 34.1297 -117.0583 241° Southwest 373 429 19,500 -975 Descending Los Angeles Center
Mon 07:17:22 PM 34.1167 -117.1167 255° West 369 425 19,200 -1,571 Descending Southern California TRACON
Mon 07:18:28 PM 34.0500 -117.2333 235° Southwest 356 410 17,300 -1,857 Descending Southern California TRACON
Mon 07:19:28 PM 34.0333 -117.3500 260° West 337 388 15,300 -1,850 Descending Southern California TRACON
Mon 07:20:28 PM 34.0333 -117.4500 270° West 306 352 13,600 -1,600 Descending Southern California TRACON
Mon 07:21:28 PM 34.0167 -117.5500 259° West 301 346 12,100 -1,400 Descending Southern California TRACON
Mon 07:22:28 PM 34.0167 -117.6333 270° West 332 382 10,800 -1,095 Descending Southern California TRACON
Mon 07:23:34 PM 34.0000 -117.7500 260° West 280 322 9,800 -850 Descending Southern California TRACON
Mon 07:24:28 PM 34.0000 -117.8333 270° West 258 297 9,100 -1,053 Descending Southern California TRACON
Mon 07:25:28 PM 33.9833 -117.9000 253° West 242 278 7,800 -1,350 Descending Southern California TRACON
Mon 07:26:28 PM 33.9833 -117.9833 270° West 233 268 6,400 -1,250 Descending Southern California TRACON
Mon 07:27:28 PM 33.9667 -118.0667 256° West 223 257 5,300 -1,100 Descending Southern California TRACON
Mon 07:28:28 PM 33.9667 -118.1333 270° West 194 223 4,200 -1,008 Descending Southern California TRACON
Mon 07:29:27 PM 33.9586 -118.1781 258° West 195 224 3,300 -915 Descending Los Angeles Center

Login

Don't have an account? Register now (free) for customized features, flight alerts, and more!